createdAt,value
2018-10-19T00:02:38.787Z,100821.00
2018-10-19T00:07:41.768Z,100825.00
2018-10-19T00:12:44.755Z,100825.00
2018-10-19T00:17:47.792Z,100819.00
2018-10-19T00:22:50.812Z,100829.00
2018-10-19T00:27:53.864Z,100822.00
2018-10-19T00:32:56.915Z,100821.00
2018-10-19T00:37:59.896Z,100831.00
2018-10-19T00:43:02.916Z,100817.00
2018-10-19T00:48:11.988Z,100809.00
2018-10-19T00:53:15.249Z,100815.00
2018-10-19T00:58:18.154Z,100826.00
2018-10-19T01:03:21.115Z,100821.00
2018-10-19T01:08:24.267Z,100819.00
2018-10-19T01:13:27.326Z,100820.00
2018-10-19T01:18:30.355Z,100806.00
2018-10-19T01:23:33.367Z,100806.00
2018-10-19T01:28:36.364Z,100806.00
2018-10-19T01:33:39.845Z,100813.00
2018-10-19T01:38:42.936Z,100816.00
2018-10-19T01:43:45.899Z,100807.00
2018-10-19T01:48:48.862Z,100820.00
2018-10-19T01:53:51.864Z,100810.00
2018-10-19T01:58:54.950Z,100811.00
2018-10-19T02:03:57.895Z,100816.00
2018-10-19T02:09:00.904Z,100819.00
2018-10-19T02:14:04.018Z,100816.00
2018-10-19T02:19:07.136Z,100819.00
2018-10-19T02:24:10.144Z,100812.00
2018-10-19T02:29:13.185Z,100799.00
2018-10-19T02:34:16.163Z,100809.00
2018-10-19T02:39:19.238Z,100815.00
2018-10-19T02:44:22.149Z,100812.00
2018-10-19T02:49:25.163Z,100815.00
2018-10-19T02:54:28.136Z,100815.00
2018-10-19T02:59:31.160Z,100820.00
2018-10-19T03:04:35.121Z,100828.00
2018-10-19T03:09:38.262Z,100831.00
2018-10-19T03:14:41.271Z,100827.00
2018-10-19T03:19:44.266Z,100833.00
2018-10-19T03:24:47.227Z,100833.00
2018-10-19T03:29:50.380Z,100844.00
2018-10-19T03:34:53.421Z,100836.00
2018-10-19T03:39:56.428Z,100834.00
2018-10-19T03:44:59.495Z,100838.00
2018-10-19T03:50:02.507Z,100846.00
2018-10-19T03:55:05.994Z,100845.00
2018-10-19T04:00:09.091Z,100848.00
2018-10-19T04:05:12.249Z,100843.00
2018-10-19T04:10:15.135Z,100851.00
2018-10-19T04:15:18.193Z,100857.00
2018-10-19T04:20:21.220Z,100851.00
2018-10-19T04:25:24.234Z,100859.00
2018-10-19T04:30:27.365Z,100863.00
2018-10-19T04:35:30.657Z,100846.00
2018-10-19T04:40:33.647Z,100847.00
2018-10-19T04:45:36.694Z,100849.00
2018-10-19T04:50:39.736Z,100855.00
2018-10-19T04:55:42.811Z,100863.00
2018-10-19T05:00:45.832Z,100861.00
2018-10-19T05:05:49.008Z,100864.00
2018-10-19T05:10:51.923Z,100871.00
2018-10-19T05:15:54.894Z,100869.00
2018-10-19T05:20:57.919Z,100873.00
2018-10-19T05:26:00.977Z,100872.00
2018-10-19T05:31:03.961Z,100881.00
2018-10-19T05:36:06.972Z,100877.00
2018-10-19T05:41:10.072Z,100873.00
2018-10-19T05:46:13.041Z,100875.00
2018-10-19T05:51:16.169Z,100878.00
2018-10-19T05:56:19.170Z,100870.00
2018-10-19T06:01:22.164Z,100878.00
2018-10-19T06:06:25.179Z,100881.00
2018-10-19T06:11:28.195Z,100886.00
2018-10-19T06:16:31.220Z,100878.00
2018-10-19T06:21:34.229Z,100888.00
2018-10-19T06:26:37.479Z,100890.00
2018-10-19T06:31:40.500Z,100887.00
2018-10-19T06:36:43.544Z,100891.00
2018-10-19T06:41:46.521Z,100892.00
2018-10-19T06:46:49.741Z,100895.00
2018-10-19T06:51:52.623Z,100910.00
2018-10-19T06:56:55.619Z,100904.00
2018-10-19T07:01:58.625Z,100912.00
2018-10-19T07:07:01.744Z,100932.00
2018-10-19T07:12:05.461Z,100927.00
2018-10-19T07:17:08.442Z,100927.00
2018-10-19T07:22:11.401Z,100919.00
2018-10-19T07:27:14.381Z,100926.00
2018-10-19T07:32:17.385Z,100944.00
2018-10-19T07:37:20.399Z,100947.00
2018-10-19T07:42:23.788Z,100950.00
2018-10-19T07:47:26.686Z,100953.00
2018-10-19T07:52:29.695Z,100956.00
2018-10-19T07:57:32.729Z,100953.00
2018-10-19T08:02:35.796Z,100957.00
2018-10-19T08:07:38.840Z,100953.00
2018-10-19T08:12:41.948Z,100960.00
2018-10-19T08:17:44.960Z,100954.00
2018-10-19T08:22:47.924Z,100954.00
2018-10-19T08:27:50.918Z,100968.00
2018-10-19T08:32:53.962Z,100977.00
2018-10-19T08:37:57.107Z,100977.00
2018-10-19T08:43:00.241Z,100977.00
2018-10-19T08:48:03.427Z,100974.00
2018-10-19T08:53:06.549Z,100970.00
2018-10-19T08:58:09.536Z,100975.00
2018-10-19T09:03:12.669Z,100977.00
2018-10-19T09:08:15.623Z,100985.00
2018-10-19T09:13:18.674Z,100986.00
2018-10-19T09:18:21.712Z,100989.00
2018-10-19T09:23:24.745Z,100985.00
2018-10-19T09:28:27.876Z,100972.00
2018-10-19T09:33:31.133Z,100967.00
2018-10-19T09:38:34.158Z,100974.00
2018-10-19T09:43:37.146Z,100976.00
2018-10-19T09:48:40.178Z,100977.00
2018-10-19T09:53:43.259Z,100967.00
2018-10-19T09:58:46.244Z,100965.00
2018-10-19T10:03:49.297Z,100961.00
2018-10-19T10:08:52.389Z,100959.00
2018-10-19T10:13:55.427Z,100959.00
2018-10-19T10:18:58.510Z,100964.00
2018-10-19T10:24:01.487Z,100964.00
2018-10-19T10:29:05.320Z,100950.00
2018-10-19T10:34:08.252Z,100969.00
2018-10-19T10:39:12.959Z,100969.00
2018-10-19T10:44:15.839Z,100957.00
2018-10-19T10:49:18.840Z,100963.00
2018-10-19T10:54:21.867Z,100954.00
2018-10-19T10:59:24.869Z,100953.00
2018-10-19T11:04:28.158Z,100944.00
2018-10-19T11:09:31.283Z,100953.00
2018-10-19T11:14:34.532Z,100940.00
2018-10-19T11:19:38.044Z,100935.00
2018-10-19T11:24:41.131Z,100934.00
2018-10-19T11:29:44.171Z,100927.00
2018-10-19T11:40:32.001Z,100925.00
2018-10-19T11:45:36.057Z,100918.00
2018-10-19T11:50:39.122Z,100907.00
2018-10-19T11:55:42.121Z,100911.00
2018-10-19T12:00:45.015Z,100898.00
2018-10-19T12:05:47.937Z,100889.00
2018-10-19T12:10:51.043Z,100892.00
2018-10-19T12:15:54.083Z,100885.00
2018-10-19T12:20:57.048Z,100882.00
2018-10-19T12:26:03.645Z,100864.00
2018-10-19T12:31:06.566Z,100873.00
2018-10-19T12:36:09.500Z,100879.00
2018-10-19T12:41:12.496Z,100872.00
2018-10-19T12:46:34.961Z,100872.00
2018-10-19T12:51:37.990Z,100869.00
2018-10-19T12:56:41.909Z,100861.00
2018-10-19T13:01:49.044Z,100865.00
2018-10-19T13:06:51.956Z,100855.00
2018-10-19T13:11:54.885Z,100859.00
2018-10-19T13:16:57.845Z,100848.00
2018-10-19T13:22:02.209Z,100846.00
2018-10-19T13:27:05.299Z,100844.00
2018-10-19T13:32:08.235Z,100844.00
2018-10-19T13:37:11.208Z,100844.00
2018-10-19T13:42:14.197Z,100830.00
2018-10-19T13:47:17.108Z,100835.00
2018-10-19T13:52:20.008Z,100837.00
2018-10-19T13:57:22.918Z,100834.00
2018-10-19T14:02:25.794Z,100836.00
2018-10-19T14:07:28.731Z,100850.00
2018-10-19T14:12:31.715Z,100844.00
2018-10-19T14:17:35.424Z,100834.00
2018-10-19T14:22:38.362Z,100829.00
2018-10-19T14:27:42.420Z,100833.00
2018-10-19T14:32:45.336Z,100845.00
2018-10-19T14:37:48.321Z,100844.00
2018-10-19T14:42:51.516Z,100846.00
2018-10-19T14:47:54.550Z,100848.00
2018-10-19T14:52:57.590Z,100844.00
2018-10-19T14:58:01.156Z,100833.00
2018-10-19T15:03:04.515Z,100827.00
2018-10-19T15:08:07.508Z,100818.00
2018-10-19T15:13:10.567Z,100820.00
2018-10-19T15:18:13.715Z,100821.00
2018-10-19T15:23:16.731Z,100825.00
2018-10-19T15:28:19.757Z,100823.00
2018-10-19T15:33:22.787Z,100820.00
2018-10-19T15:38:25.787Z,100810.00
2018-10-19T15:43:28.774Z,100809.00
2018-10-19T15:48:31.800Z,100817.00
2018-10-19T15:53:34.914Z,100820.00
2018-10-19T15:58:38.294Z,100802.00
2018-10-19T16:03:41.388Z,100804.00
2018-10-19T16:08:44.426Z,100803.00
2018-10-19T16:13:47.817Z,100807.00
2018-10-19T16:18:51.586Z,100824.00
2018-10-19T16:23:54.571Z,100823.00
2018-10-19T16:28:57.609Z,100820.00
2018-10-19T16:34:02.639Z,100819.00
2018-10-19T16:39:08.335Z,100837.00
2018-10-19T16:44:12.152Z,100835.00
2018-10-19T16:49:15.301Z,100834.00
2018-10-19T16:54:18.634Z,100844.00
2018-10-19T16:59:21.960Z,100854.00
2018-10-19T17:04:25.017Z,100874.00
2018-10-19T17:09:27.964Z,100858.00
2018-10-19T17:14:31.294Z,100867.00
2018-10-19T17:19:34.467Z,100880.00
2018-10-19T17:24:37.565Z,100877.00
2018-10-19T17:29:40.744Z,100878.00
2018-10-19T17:34:43.737Z,100889.00
2018-10-19T17:39:46.673Z,100894.00
2018-10-19T17:44:49.663Z,100899.00
2018-10-19T17:49:52.744Z,100909.00
2018-10-19T17:54:55.890Z,100915.00
2018-10-19T17:59:59.253Z,100920.00
2018-10-19T18:05:05.224Z,100929.00
2018-10-19T18:10:08.399Z,100939.00
2018-10-19T18:15:11.518Z,100939.00
2018-10-19T18:20:14.468Z,100941.00
2018-10-19T18:25:17.437Z,100950.00
2018-10-19T18:30:20.341Z,100961.00
2018-10-19T18:35:23.398Z,100965.00
2018-10-19T18:40:26.297Z,100963.00
2018-10-19T18:45:29.181Z,100959.00
2018-10-19T18:50:32.132Z,100959.00
2018-10-19T18:55:35.048Z,100974.00
2018-10-19T19:00:37.996Z,100972.00
2018-10-19T19:05:40.851Z,100982.00
2018-10-19T19:10:43.762Z,100983.00
2018-10-19T19:15:46.936Z,100988.00
2018-10-19T19:20:49.986Z,101003.00
2018-10-19T19:25:59.268Z,101009.00
2018-10-19T19:31:05.105Z,101010.00
2018-10-19T19:36:08.296Z,101011.00
2018-10-19T19:41:17.250Z,101014.00
2018-10-19T19:46:20.373Z,101021.00
2018-10-19T19:51:23.516Z,101024.00
2018-10-19T19:56:26.600Z,101037.00
2018-10-19T20:01:29.745Z,101027.00
2018-10-19T20:06:32.838Z,101032.00
2018-10-19T20:11:35.841Z,101052.00
2018-10-19T20:16:39.096Z,101039.00
2018-10-19T20:21:42.026Z,101035.00
2018-10-19T20:26:44.982Z,101034.00
2018-10-19T20:31:47.902Z,101047.00
2018-10-19T20:36:50.839Z,101041.00
2018-10-19T20:41:53.714Z,101034.00
2018-10-19T20:46:56.705Z,101039.00
2018-10-19T20:51:59.727Z,101044.00
2018-10-19T20:57:04.975Z,101041.00
2018-10-19T21:02:07.950Z,101028.00
2018-10-19T21:07:10.919Z,101037.00
2018-10-19T21:12:13.841Z,101031.00
2018-10-19T21:17:17.152Z,101033.00
2018-10-19T21:22:20.604Z,101043.00
2018-10-19T21:27:23.571Z,101036.00
2018-10-19T21:32:26.703Z,101035.00
2018-10-19T21:37:29.617Z,101038.00
2018-10-19T21:42:32.544Z,101044.00
2018-10-19T21:47:35.489Z,101048.00
2018-10-19T21:52:38.444Z,101036.00
2018-10-19T21:57:41.352Z,101046.00
2018-10-19T22:02:44.340Z,101049.00
2018-10-19T22:07:47.234Z,101056.00
2018-10-19T22:12:50.136Z,101054.00
2018-10-19T22:17:53.071Z,101041.00
2018-10-19T22:22:56.088Z,101047.00
2018-10-19T22:27:58.952Z,101037.00
2018-10-19T22:33:02.725Z,101044.00
2018-10-19T22:38:05.968Z,101046.00
2018-10-19T22:43:08.985Z,101041.00
2018-10-19T22:48:11.988Z,101047.00
2018-10-19T22:53:15.312Z,101043.00
2018-10-19T22:58:18.093Z,101055.00
2018-10-19T23:03:21.338Z,101044.00
2018-10-19T23:08:24.404Z,101051.00
2018-10-19T23:13:27.431Z,101048.00
2018-10-19T23:18:30.491Z,101061.00
2018-10-19T23:23:33.565Z,101076.00
2018-10-19T23:28:36.523Z,101069.00
2018-10-19T23:33:39.473Z,101075.00
2018-10-19T23:38:42.471Z,101079.00
2018-10-19T23:43:45.463Z,101077.00
2018-10-19T23:48:48.432Z,101087.00
2018-10-19T23:53:51.511Z,101101.00
2018-10-19T23:58:54.493Z,101103.00
